createdAt,value
2022-09-14T00:00:09.447Z,96.89
2022-09-14T00:01:24.662Z,96.61
2022-09-14T00:02:09.554Z,96.42
2022-09-14T00:03:09.613Z,96.51
2022-09-14T00:04:09.366Z,96.89
2022-09-14T00:05:09.352Z,96.89
2022-09-14T00:06:09.333Z,96.42
2022-09-14T00:07:09.306Z,96.32
2022-09-14T00:08:09.286Z,96.70
2022-09-14T00:09:09.264Z,96.80
2022-09-14T00:10:09.243Z,96.70
2022-09-14T00:11:09.224Z,96.51
2022-09-14T00:12:09.209Z,96.51
2022-09-14T00:13:09.184Z,97.28
2022-09-14T00:14:09.161Z,97.56
2022-09-14T00:15:09.143Z,97.76
2022-09-14T00:16:09.177Z,97.28
2022-09-14T00:17:09.106Z,97.09
2022-09-14T00:18:09.101Z,96.99
2022-09-14T00:19:09.064Z,97.28
2022-09-14T00:20:09.042Z,96.99
2022-09-14T00:21:09.030Z,96.80
2022-09-14T00:22:09.004Z,96.61
2022-09-14T00:23:08.983Z,96.89
2022-09-14T00:24:08.963Z,96.61
2022-09-14T00:25:08.942Z,96.51
2022-09-14T00:26:08.929Z,97.56
2022-09-14T00:27:08.905Z,97.66
2022-09-14T00:28:08.881Z,96.89
2022-09-14T00:29:08.866Z,96.32
2022-09-14T00:30:08.841Z,97.09
2022-09-14T00:31:08.821Z,96.89
2022-09-14T00:32:08.875Z,96.80
2022-09-14T00:33:08.779Z,96.89
2022-09-14T00:34:08.780Z,96.32
2022-09-14T00:35:08.741Z,96.22
2022-09-14T00:36:08.720Z,96.42
2022-09-14T00:37:08.699Z,96.13
2022-09-14T00:38:08.680Z,96.22
2022-09-14T00:39:08.659Z,96.42
2022-09-14T00:40:08.706Z,96.42
2022-09-14T00:41:08.618Z,96.70
2022-09-14T00:42:08.598Z,96.03
2022-09-14T00:43:08.581Z,96.22
2022-09-14T00:44:08.557Z,96.22
2022-09-14T00:45:08.539Z,96.70
2022-09-14T00:46:08.599Z,96.80
2022-09-14T00:47:08.498Z,96.70
2022-09-14T00:48:08.479Z,97.28
2022-09-14T00:49:08.462Z,97.47
2022-09-14T00:50:08.453Z,97.28
2022-09-14T00:51:08.421Z,96.51
2022-09-14T00:52:08.397Z,96.80
2022-09-14T00:53:08.380Z,96.32
2022-09-14T00:54:08.360Z,96.32
2022-09-14T00:55:08.341Z,96.13
2022-09-14T00:56:08.317Z,96.42
2022-09-14T00:57:08.296Z,96.61
2022-09-14T00:58:08.277Z,96.80
2022-09-14T00:59:08.258Z,96.51
2022-09-14T01:00:08.234Z,95.94
2022-09-14T01:01:08.324Z,96.03
2022-09-14T01:02:08.235Z,96.22
2022-09-14T01:03:08.188Z,96.61
2022-09-14T01:04:08.156Z,96.22
2022-09-14T01:05:08.137Z,96.13
2022-09-14T01:06:08.138Z,96.42
2022-09-14T01:07:08.095Z,96.51
2022-09-14T01:08:08.077Z,95.46
2022-09-14T01:09:08.056Z,96.42
2022-09-14T01:10:08.034Z,96.42
2022-09-14T01:11:08.017Z,96.13
2022-09-14T01:12:07.996Z,96.42
2022-09-14T01:13:07.976Z,95.75
2022-09-14T01:14:07.955Z,95.94
2022-09-14T01:15:07.936Z,96.03
2022-09-14T01:16:07.971Z,96.22
2022-09-14T01:17:07.895Z,96.32
2022-09-14T01:18:07.875Z,96.61
2022-09-14T01:19:07.856Z,96.42
2022-09-14T01:20:07.838Z,96.22
2022-09-14T01:21:07.816Z,96.22
2022-09-14T01:22:07.811Z,96.22
2022-09-14T01:23:07.775Z,96.13
2022-09-14T01:24:07.752Z,96.22
2022-09-14T01:25:07.735Z,96.32
2022-09-14T01:26:07.714Z,96.03
2022-09-14T01:27:07.695Z,96.32
2022-09-14T01:28:07.673Z,96.32
2022-09-14T01:29:07.655Z,95.36
2022-09-14T01:30:07.632Z,96.42
2022-09-14T01:31:07.646Z,96.22
2022-09-14T01:32:07.592Z,96.42
2022-09-14T01:33:07.574Z,96.51
2022-09-14T01:34:07.553Z,96.51
2022-09-14T01:35:07.533Z,97.66
2022-09-14T01:36:07.511Z,97.76
2022-09-14T01:37:07.492Z,96.99
2022-09-14T01:38:07.586Z,97.56
2022-09-14T01:39:07.456Z,97.56
2022-09-14T01:40:07.542Z,97.76
2022-09-14T01:41:07.412Z,97.95
2022-09-14T01:42:07.395Z,98.24
2022-09-14T01:43:07.375Z,98.14
2022-09-14T01:44:07.353Z,97.56
2022-09-14T01:45:07.332Z,97.56
2022-09-14T01:46:07.386Z,97.28
2022-09-14T01:47:07.293Z,97.66
2022-09-14T01:48:07.272Z,98.72
2022-09-14T01:49:07.255Z,98.14
2022-09-14T01:50:07.232Z,98.33
2022-09-14T01:51:07.214Z,98.43
2022-09-14T01:52:07.195Z,98.14
2022-09-14T01:53:07.173Z,97.95
2022-09-14T01:54:07.173Z,98.24
2022-09-14T01:55:07.132Z,97.86
2022-09-14T01:56:07.112Z,97.66
2022-09-14T01:57:07.091Z,97.86
2022-09-14T01:58:07.071Z,97.90
2022-09-14T01:59:07.050Z,97.95
2022-09-14T02:00:07.030Z,98.53
2022-09-14T02:01:07.088Z,99.01
2022-09-14T02:02:07.098Z,98.72
2022-09-14T02:03:06.970Z,98.91
2022-09-14T02:04:06.952Z,98.82
2022-09-14T02:05:06.931Z,98.82
2022-09-14T02:06:06.910Z,98.77
2022-09-14T02:07:06.887Z,99.39
2022-09-14T02:08:06.869Z,99.15
2022-09-14T02:09:06.847Z,98.67
2022-09-14T02:10:06.847Z,98.19
2022-09-14T02:11:06.808Z,98.48
2022-09-14T02:12:06.788Z,98.86
2022-09-14T02:13:06.770Z,99.15
2022-09-14T02:14:06.746Z,98.77
2022-09-14T02:15:06.729Z,98.57
2022-09-14T02:16:06.752Z,98.96
2022-09-14T02:17:06.688Z,98.77
2022-09-14T02:18:06.667Z,98.19
2022-09-14T02:19:06.649Z,98.57
2022-09-14T02:20:06.628Z,98.28
2022-09-14T02:21:06.605Z,98.00
2022-09-14T02:22:06.586Z,98.00
2022-09-14T02:23:06.571Z,98.67
2022-09-14T02:24:06.545Z,98.77
2022-09-14T02:25:06.524Z,98.48
2022-09-14T02:26:06.527Z,98.00
2022-09-14T02:27:06.484Z,98.10
2022-09-14T02:28:06.470Z,98.28
2022-09-14T02:29:06.453Z,98.10
2022-09-14T02:30:06.423Z,98.00
2022-09-14T02:31:06.500Z,98.10
2022-09-14T02:32:06.385Z,97.90
2022-09-14T02:33:06.362Z,98.86
2022-09-14T02:34:06.343Z,98.10
2022-09-14T02:35:06.324Z,98.10
2022-09-14T02:36:06.304Z,98.19
2022-09-14T02:37:06.281Z,98.67
2022-09-14T02:38:06.264Z,98.62
2022-09-14T02:39:06.242Z,98.91
2022-09-14T02:40:06.304Z,98.91
2022-09-14T02:41:06.204Z,98.86
2022-09-14T02:42:06.199Z,98.77
2022-09-14T02:43:06.171Z,98.77
2022-09-14T02:44:06.141Z,98.67
2022-09-14T02:45:06.120Z,99.05
2022-09-14T02:46:06.106Z,99.24
2022-09-14T02:47:06.138Z,98.48
2022-09-14T02:48:06.063Z,98.77
2022-09-14T02:49:06.040Z,98.48
2022-09-14T02:50:06.023Z,98.86
2022-09-14T02:51:06.004Z,98.77
2022-09-14T02:52:05.980Z,98.86
2022-09-14T02:53:05.961Z,98.67
2022-09-14T02:54:05.940Z,98.77
2022-09-14T02:55:05.919Z,98.77
2022-09-14T02:56:05.898Z,98.77
2022-09-14T02:57:05.879Z,98.48
2022-09-14T02:58:05.879Z,98.67
2022-09-14T02:59:05.842Z,98.96
2022-09-14T03:00:05.818Z,98.96
2022-09-14T03:01:05.902Z,98.77
2022-09-14T03:02:05.854Z,98.48
2022-09-14T03:03:05.760Z,99.24
2022-09-14T03:04:05.738Z,99.24
2022-09-14T03:05:05.717Z,99.99
2022-09-14T03:06:05.703Z,99.73
2022-09-14T03:07:05.681Z,99.73
2022-09-14T03:08:05.658Z,99.73
2022-09-14T03:09:05.635Z,99.53
2022-09-14T03:10:05.620Z,99.99
2022-09-14T03:11:05.597Z,99.99
2022-09-14T03:12:05.577Z,99.99
2022-09-14T03:13:05.553Z,99.99
2022-09-14T03:14:05.639Z,99.99
2022-09-14T03:15:05.513Z,99.99
2022-09-14T03:16:05.548Z,99.99
2022-09-14T03:17:05.471Z,99.99
2022-09-14T03:18:05.456Z,99.99
2022-09-14T03:19:05.431Z,99.99
2022-09-14T03:20:05.411Z,99.99
2022-09-14T03:21:05.390Z,99.99
2022-09-14T03:22:05.371Z,99.99
2022-09-14T03:23:05.350Z,99.99
2022-09-14T03:24:05.331Z,99.99
2022-09-14T03:25:05.310Z,99.99
2022-09-14T03:26:05.291Z,99.99
2022-09-14T03:27:05.271Z,99.99
2022-09-14T03:28:05.252Z,99.99
2022-09-14T03:29:05.228Z,99.99
2022-09-14T03:30:05.233Z,99.99
2022-09-14T03:31:05.268Z,99.99
2022-09-14T03:32:05.171Z,99.99
2022-09-14T03:33:05.149Z,99.99
2022-09-14T03:34:05.130Z,99.99
2022-09-14T03:35:05.107Z,99.99
2022-09-14T03:36:05.090Z,99.99
2022-09-14T03:37:05.066Z,99.99
2022-09-14T03:38:05.049Z,99.99
2022-09-14T03:39:05.027Z,99.99
2022-09-14T03:40:05.020Z,99.99
2022-09-14T03:41:04.983Z,99.99
2022-09-14T03:42:04.975Z,99.99
2022-09-14T03:43:04.943Z,99.99
2022-09-14T03:44:04.928Z,99.99
2022-09-14T03:45:04.905Z,99.99
2022-09-14T03:46:04.939Z,99.99
2022-09-14T03:47:04.865Z,99.99
2022-09-14T03:48:04.842Z,99.99
2022-09-14T03:49:04.823Z,99.99
2022-09-14T03:50:04.803Z,99.99
2022-09-14T03:51:04.783Z,99.99
2022-09-14T03:52:04.765Z,99.99
2022-09-14T03:53:04.743Z,99.99
2022-09-14T03:54:04.721Z,99.99
2022-09-14T03:55:04.702Z,99.99
2022-09-14T03:56:04.681Z,99.99
2022-09-14T03:57:04.660Z,99.99
2022-09-14T03:58:04.641Z,99.99
2022-09-14T03:59:04.619Z,99.99
2022-09-14T04:00:04.610Z,99.99
2022-09-14T04:01:04.578Z,99.99
2022-09-14T04:02:04.763Z,99.99
2022-09-14T04:03:04.588Z,99.99
2022-09-14T04:04:04.518Z,99.99
2022-09-14T04:05:04.495Z,99.99
2022-09-14T04:06:04.477Z,99.99
2022-09-14T04:07:04.453Z,99.99
2022-09-14T04:08:04.433Z,99.99
2022-09-14T04:09:04.412Z,99.99
2022-09-14T04:10:04.393Z,99.99
2022-09-14T04:11:04.372Z,99.99
2022-09-14T04:12:04.353Z,99.99
2022-09-14T04:13:04.331Z,99.99
2022-09-14T04:14:04.312Z,99.99
2022-09-14T04:15:04.292Z,99.99
2022-09-14T04:16:04.333Z,99.99
2022-09-14T04:17:04.250Z,99.99
2022-09-14T04:18:04.246Z,99.99
2022-09-14T04:19:04.208Z,99.99
2022-09-14T04:20:04.188Z,99.99
2022-09-14T04:21:07.978Z,99.99
2022-09-14T04:22:04.149Z,99.99
2022-09-14T04:23:04.126Z,99.99
2022-09-14T04:24:14.495Z,99.99
2022-09-14T04:25:04.084Z,99.99
2022-09-14T04:26:04.066Z,99.99
2022-09-14T04:27:04.044Z,99.99
2022-09-14T04:28:19.689Z,99.99
2022-09-14T04:29:04.002Z,99.99
2022-09-14T04:30:03.984Z,99.99
2022-09-14T04:31:04.026Z,99.99
2022-09-14T04:32:03.942Z,99.99
2022-09-14T04:33:03.922Z,99.99
2022-09-14T04:34:03.919Z,99.99
2022-09-14T04:35:03.881Z,99.99
2022-09-14T04:36:03.860Z,99.99
2022-09-14T04:37:03.840Z,99.99
2022-09-14T04:38:03.819Z,99.99
2022-09-14T04:39:03.801Z,99.99
2022-09-14T04:40:03.854Z,99.99
2022-09-14T04:41:03.755Z,99.99
2022-09-14T04:42:03.740Z,99.99
2022-09-14T04:43:03.726Z,99.99
2022-09-14T04:44:03.694Z,99.99
2022-09-14T04:45:03.679Z,99.99
2022-09-14T04:46:03.745Z,99.99
2022-09-14T04:47:03.669Z,99.99
2022-09-14T04:48:03.616Z,99.99
2022-09-14T04:49:03.594Z,99.99
2022-09-14T04:50:03.591Z,99.99
2022-09-14T04:51:03.552Z,99.99
2022-09-14T04:52:03.530Z,99.99
2022-09-14T04:53:03.513Z,99.99
2022-09-14T04:54:03.496Z,99.99
2022-09-14T04:55:03.473Z,99.99
2022-09-14T04:56:03.452Z,99.99
2022-09-14T04:57:03.428Z,99.99
2022-09-14T04:58:03.411Z,99.99
2022-09-14T04:59:03.391Z,99.99
2022-09-14T05:00:03.373Z,99.99
2022-09-14T05:01:03.346Z,99.99
2022-09-14T05:02:03.438Z,99.99
2022-09-14T05:03:03.362Z,99.99
2022-09-14T05:04:03.287Z,99.99
2022-09-14T05:05:03.270Z,99.99
2022-09-14T05:06:03.351Z,99.99
2022-09-14T05:07:03.225Z,99.99
2022-09-14T05:08:03.205Z,99.99
2022-09-14T05:09:03.185Z,99.99
2022-09-14T05:10:03.166Z,99.99
2022-09-14T05:11:03.147Z,99.99
2022-09-14T05:12:03.120Z,99.99
2022-09-14T05:13:03.098Z,99.99
2022-09-14T05:14:03.079Z,99.99
2022-09-14T05:15:03.059Z,99.99
2022-09-14T05:16:03.116Z,99.99
2022-09-14T05:17:03.021Z,99.99
2022-09-14T05:18:02.998Z,99.99
2022-09-14T05:19:02.976Z,99.99
2022-09-14T05:20:02.967Z,99.99
2022-09-14T05:21:07.600Z,99.99
2022-09-14T05:22:02.936Z,99.99
2022-09-14T05:23:02.894Z,99.99
2022-09-14T05:24:02.875Z,99.99
2022-09-14T05:25:02.852Z,99.99
2022-09-14T05:26:02.835Z,99.99
2022-09-14T05:27:02.813Z,99.99
2022-09-14T05:28:02.825Z,99.99
2022-09-14T05:29:02.772Z,99.99
2022-09-14T05:30:02.754Z,99.99
2022-09-14T05:31:02.773Z,99.99
2022-09-14T05:32:02.709Z,99.99
2022-09-14T05:33:02.688Z,99.99
2022-09-14T05:34:02.670Z,99.99
2022-09-14T05:35:02.647Z,99.99
2022-09-14T05:36:02.628Z,99.99
2022-09-14T05:37:02.605Z,99.99
2022-09-14T05:38:02.613Z,99.99
2022-09-14T05:39:02.564Z,99.99
2022-09-14T05:40:02.640Z,99.99
2022-09-14T05:41:02.527Z,99.99
2022-09-14T05:42:02.506Z,99.99
2022-09-14T05:43:02.491Z,99.99
2022-09-14T05:44:02.467Z,99.99
2022-09-14T05:45:02.442Z,99.99
2022-09-14T05:46:02.501Z,99.99
2022-09-14T05:47:02.403Z,99.99
2022-09-14T05:48:02.384Z,99.99
2022-09-14T05:49:02.362Z,99.99
2022-09-14T05:50:02.428Z,99.99
2022-09-14T05:51:02.321Z,99.99
2022-09-14T05:52:02.298Z,99.99
2022-09-14T05:53:02.278Z,99.99
2022-09-14T05:54:02.275Z,99.99
2022-09-14T05:55:02.237Z,99.99
2022-09-14T05:56:02.221Z,99.99
2022-09-14T05:57:02.195Z,99.99
2022-09-14T05:58:02.177Z,99.99
2022-09-14T05:59:02.159Z,99.99
2022-09-14T06:00:02.134Z,99.99
2022-09-14T06:01:02.116Z,99.99
2022-09-14T06:02:02.309Z,99.99
2022-09-14T06:03:02.072Z,99.99
2022-09-14T06:04:02.052Z,99.99
2022-09-14T06:05:02.093Z,99.99
2022-09-14T06:06:02.010Z,99.99
2022-09-14T06:07:17.948Z,99.99
2022-09-14T06:08:01.968Z,99.99
2022-09-14T06:09:01.953Z,99.99
2022-09-14T06:10:01.952Z,99.99
2022-09-14T06:11:01.911Z,99.99
2022-09-14T06:12:01.888Z,99.99
2022-09-14T06:13:01.871Z,99.99
2022-09-14T06:14:01.872Z,99.99
2022-09-14T06:15:01.825Z,99.99
2022-09-14T06:16:01.803Z,99.99
2022-09-14T06:17:01.787Z,99.99
2022-09-14T06:18:01.764Z,99.99
2022-09-14T06:19:01.742Z,99.99
2022-09-14T06:20:04.588Z,99.99
2022-09-14T06:21:01.699Z,99.99
2022-09-14T06:22:01.682Z,99.99
2022-09-14T06:23:01.659Z,99.99
2022-09-14T06:24:01.637Z,99.99
2022-09-14T06:25:01.625Z,99.99
2022-09-14T06:26:01.616Z,99.99
2022-09-14T06:27:01.580Z,99.99
2022-09-14T06:28:01.555Z,99.99
2022-09-14T06:29:01.536Z,99.99
2022-09-14T06:30:01.515Z,99.99
2022-09-14T06:31:01.497Z,99.99
2022-09-14T06:32:01.475Z,99.99
2022-09-14T06:33:01.458Z,99.99
2022-09-14T06:34:01.437Z,99.99
2022-09-14T06:35:01.411Z,99.99
2022-09-14T06:36:01.390Z,99.99
2022-09-14T06:37:01.369Z,99.99
2022-09-14T06:38:01.349Z,99.99
2022-09-14T06:39:01.327Z,99.99
2022-09-14T06:40:01.363Z,99.99
2022-09-14T06:41:01.287Z,99.99
2022-09-14T06:42:01.377Z,99.99
2022-09-14T06:43:01.246Z,99.99
2022-09-14T06:44:01.224Z,99.99
2022-09-14T06:45:01.205Z,99.99
2022-09-14T06:46:01.184Z,99.99
2022-09-14T06:47:01.162Z,99.99
2022-09-14T06:48:01.141Z,99.99
2022-09-14T06:49:01.120Z,99.99
2022-09-14T06:50:01.099Z,99.99
2022-09-14T06:51:01.082Z,99.99
2022-09-14T06:52:01.059Z,99.99
2022-09-14T06:53:01.042Z,99.99
2022-09-14T06:54:01.024Z,99.99
2022-09-14T06:55:01.003Z,99.99
2022-09-14T06:56:00.977Z,99.99
2022-09-14T06:57:00.957Z,99.99
2022-09-14T06:58:00.954Z,99.99
2022-09-14T06:59:00.917Z,99.99
2022-09-14T07:00:00.897Z,99.99
2022-09-14T07:01:00.873Z,99.99
2022-09-14T07:02:00.853Z,99.99
2022-09-14T07:03:00.867Z,99.99
2022-09-14T07:04:00.810Z,99.99
2022-09-14T07:05:00.793Z,99.99
2022-09-14T07:06:00.770Z,99.99
2022-09-14T07:07:00.751Z,99.99
2022-09-14T07:08:00.748Z,99.99
2022-09-14T07:09:00.708Z,99.99
2022-09-14T07:10:00.686Z,99.99
2022-09-14T07:11:00.669Z,99.99
2022-09-14T07:12:00.644Z,99.99
2022-09-14T07:13:00.624Z,99.99
2022-09-14T07:14:00.623Z,99.99
2022-09-14T07:15:00.582Z,99.99
2022-09-14T07:16:00.564Z,99.99
2022-09-14T07:17:00.547Z,99.99
2022-09-14T07:18:00.523Z,99.99
2022-09-14T07:19:00.502Z,99.99
2022-09-14T07:20:00.575Z,99.99
2022-09-14T07:21:05.249Z,99.99
2022-09-14T07:22:00.437Z,99.99
2022-09-14T07:23:00.420Z,99.99
2022-09-14T07:24:00.396Z,99.99
2022-09-14T07:25:00.375Z,99.99
2022-09-14T07:26:00.356Z,99.99
2022-09-14T07:27:00.335Z,99.99
2022-09-14T07:28:00.316Z,99.99
2022-09-14T07:29:00.293Z,99.99
2022-09-14T07:30:00.370Z,99.99
2022-09-14T07:31:00.337Z,99.99
2022-09-14T07:32:00.230Z,99.99
2022-09-14T07:33:00.211Z,99.99
2022-09-14T07:34:00.188Z,99.99
2022-09-14T07:35:00.181Z,99.99
2022-09-14T07:36:00.152Z,99.99
2022-09-14T07:37:00.132Z,99.99
2022-09-14T07:38:00.108Z,99.99
2022-09-14T07:39:00.088Z,99.99
2022-09-14T07:40:00.156Z,99.99
2022-09-14T07:41:00.044Z,99.99
2022-09-14T07:42:00.026Z,99.99
2022-09-14T07:43:00.006Z,99.99
2022-09-14T07:43:59.983Z,99.99
2022-09-14T07:44:59.963Z,99.99
2022-09-14T07:46:00.021Z,99.99
2022-09-14T07:46:59.924Z,99.99
2022-09-14T07:47:59.900Z,99.99
2022-09-14T07:48:59.883Z,99.99
2022-09-14T07:49:59.858Z,99.99
2022-09-14T07:50:59.854Z,99.99
2022-09-14T07:51:59.816Z,99.99
2022-09-14T07:52:59.800Z,99.99
2022-09-14T07:53:59.775Z,99.99
2022-09-14T07:54:59.758Z,99.99
2022-09-14T07:55:59.739Z,99.99
2022-09-14T07:56:59.714Z,99.99
2022-09-14T07:57:59.699Z,99.99
2022-09-14T07:59:17.117Z,99.99
2022-09-14T07:59:59.652Z,99.99
2022-09-14T08:00:59.666Z,99.99
2022-09-14T08:01:59.760Z,99.99
2022-09-14T08:02:59.588Z,99.99
2022-09-14T08:04:03.391Z,99.99
2022-09-14T08:04:59.549Z,99.99
2022-09-14T08:05:59.527Z,99.99
2022-09-14T08:06:59.508Z,99.99
2022-09-14T08:07:59.486Z,99.99
2022-09-14T08:08:59.467Z,99.99
2022-09-14T08:09:59.444Z,99.99
2022-09-14T08:10:59.426Z,99.99
2022-09-14T08:11:59.403Z,99.99
2022-09-14T08:12:59.384Z,99.99
2022-09-14T08:13:59.365Z,99.99
2022-09-14T08:14:59.344Z,99.99
2022-09-14T08:15:59.321Z,99.99
2022-09-14T08:16:59.335Z,99.99
2022-09-14T08:17:59.302Z,99.99
2022-09-14T08:18:59.260Z,99.99
2022-09-14T08:19:59.242Z,99.99
2022-09-14T08:20:59.219Z,99.99
2022-09-14T08:21:59.201Z,99.99
2022-09-14T08:22:59.181Z,99.99
2022-09-14T08:23:59.163Z,99.99
2022-09-14T08:24:59.136Z,99.99
2022-09-14T08:25:59.116Z,99.99
2022-09-14T08:26:59.098Z,99.99
2022-09-14T08:27:59.072Z,99.99
2022-09-14T08:28:59.057Z,99.99
2022-09-14T08:29:59.035Z,99.99
2022-09-14T08:30:59.012Z,99.99
2022-09-14T08:31:59.103Z,99.99
2022-09-14T08:33:01.899Z,99.99
2022-09-14T08:33:58.969Z,99.99
2022-09-14T08:34:58.928Z,99.99
2022-09-14T08:35:58.922Z,99.99
2022-09-14T08:36:58.891Z,99.99
2022-09-14T08:37:58.875Z,99.99
2022-09-14T08:38:58.848Z,99.99
2022-09-14T08:39:58.843Z,99.99
2022-09-14T08:40:58.809Z,99.99
2022-09-14T08:41:58.786Z,99.99
2022-09-14T08:42:58.765Z,99.99
2022-09-14T08:43:58.747Z,99.99
2022-09-14T08:44:58.723Z,99.99
2022-09-14T08:45:58.749Z,99.99
2022-09-14T08:46:58.690Z,99.99
2022-09-14T08:47:58.660Z,99.99
2022-09-14T08:48:58.644Z,99.99
2022-09-14T08:49:58.730Z,99.99
2022-09-14T08:50:58.601Z,99.99
2022-09-14T08:51:58.577Z,99.99
2022-09-14T08:52:58.561Z,99.99
2022-09-14T08:53:58.537Z,99.99
2022-09-14T08:54:58.517Z,99.99
2022-09-14T08:55:58.494Z,99.99
2022-09-14T08:56:58.474Z,99.99
2022-09-14T08:57:58.454Z,99.99
2022-09-14T08:58:58.437Z,99.99
2022-09-14T08:59:58.412Z,99.99
2022-09-14T09:00:58.423Z,99.99
2022-09-14T09:01:58.372Z,99.99
2022-09-14T09:02:58.352Z,99.99
2022-09-14T09:03:58.421Z,99.99
2022-09-14T09:04:58.311Z,99.99
2022-09-14T09:05:58.444Z,99.99
2022-09-14T09:06:58.270Z,99.99
2022-09-14T09:07:58.249Z,99.99
2022-09-14T09:08:58.228Z,99.99
2022-09-14T09:09:58.208Z,99.99
2022-09-14T09:10:58.188Z,99.99
2022-09-14T09:11:58.175Z,99.99
2022-09-14T09:12:58.146Z,99.99
2022-09-14T09:13:58.125Z,99.99
2022-09-14T09:14:58.110Z,99.99
2022-09-14T09:15:58.104Z,99.99
2022-09-14T09:16:58.067Z,99.99
2022-09-14T09:17:58.044Z,99.99
2022-09-14T09:18:58.028Z,99.99
2022-09-14T09:19:58.009Z,99.99
2022-09-14T09:20:57.986Z,99.99
2022-09-14T09:21:57.983Z,99.99
2022-09-14T09:22:57.943Z,99.99
2022-09-14T09:23:57.925Z,99.99
2022-09-14T09:24:57.906Z,99.99
2022-09-14T09:25:57.888Z,99.99
2022-09-14T09:26:57.860Z,99.99
2022-09-14T09:27:57.839Z,99.99
2022-09-14T09:28:57.821Z,99.99
2022-09-14T09:29:57.798Z,99.99
2022-09-14T09:30:57.780Z,99.99
2022-09-14T09:31:57.836Z,99.99
2022-09-14T09:32:57.738Z,99.99
2022-09-14T09:33:57.717Z,99.99
2022-09-14T09:34:57.696Z,99.99
2022-09-14T09:35:57.676Z,99.99
2022-09-14T09:36:57.658Z,99.99
2022-09-14T09:37:57.743Z,99.99
2022-09-14T09:39:00.641Z,99.99
2022-09-14T09:39:57.650Z,99.99
2022-09-14T09:40:57.576Z,99.99
2022-09-14T09:41:57.551Z,99.99
2022-09-14T09:42:57.532Z,99.99
2022-09-14T09:43:57.511Z,99.99
2022-09-14T09:45:01.724Z,99.99
2022-09-14T09:45:57.470Z,99.99
2022-09-14T09:46:57.486Z,99.99
2022-09-14T09:47:57.428Z,99.99
2022-09-14T09:48:57.416Z,99.99
2022-09-14T09:49:57.390Z,99.99
2022-09-14T09:50:57.368Z,99.99
2022-09-14T09:51:57.347Z,99.99
2022-09-14T09:52:57.328Z,99.99
2022-09-14T09:53:57.325Z,99.99
2022-09-14T09:54:57.284Z,99.99
2022-09-14T09:55:57.262Z,99.99
2022-09-14T09:56:57.242Z,99.99
2022-09-14T09:57:57.221Z,99.99
2022-09-14T09:58:57.210Z,99.99
2022-09-14T09:59:57.189Z,99.99
2022-09-14T10:00:57.285Z,99.99
2022-09-14T10:01:57.192Z,99.99
2022-09-14T10:02:57.121Z,99.99
2022-09-14T10:03:57.101Z,99.99
2022-09-14T10:04:57.081Z,99.99
2022-09-14T10:05:57.058Z,99.99
2022-09-14T10:06:57.040Z,99.99
2022-09-14T10:07:57.017Z,99.99
2022-09-14T10:08:56.999Z,99.99
2022-09-14T10:09:57.002Z,99.99
2022-09-14T10:10:56.957Z,99.99
2022-09-14T10:11:56.936Z,99.99
2022-09-14T10:12:56.915Z,99.99
2022-09-14T10:13:56.895Z,99.99
2022-09-14T10:14:56.877Z,99.99
2022-09-14T10:15:56.931Z,99.99
2022-09-14T10:16:56.834Z,99.99
2022-09-14T10:17:56.817Z,99.99
2022-09-14T10:18:56.793Z,99.99
2022-09-14T10:19:56.772Z,99.99
2022-09-14T10:20:56.757Z,99.99
2022-09-14T10:21:56.733Z,99.99
2022-09-14T10:22:56.710Z,99.99
2022-09-14T10:23:56.691Z,99.99
2022-09-14T10:24:56.668Z,99.99
2022-09-14T10:25:56.670Z,99.99
2022-09-14T10:26:56.628Z,99.99
2022-09-14T10:27:56.607Z,99.99
2022-09-14T10:28:56.594Z,99.99
2022-09-14T10:29:56.568Z,99.99
2022-09-14T10:30:56.622Z,99.99
2022-09-14T10:31:56.528Z,99.99
2022-09-14T10:32:56.506Z,99.99
2022-09-14T10:33:56.491Z,99.99
2022-09-14T10:34:56.467Z,99.99
2022-09-14T10:35:56.450Z,99.99
2022-09-14T10:36:56.424Z,99.99
2022-09-14T10:37:56.417Z,99.99
2022-09-14T10:38:56.387Z,99.99
2022-09-14T10:39:56.423Z,99.99
2022-09-14T10:40:56.342Z,99.99
2022-09-14T10:41:56.343Z,99.99
2022-09-14T10:42:56.304Z,99.99
2022-09-14T10:43:56.283Z,99.99
2022-09-14T10:44:56.264Z,99.99
2022-09-14T10:45:56.243Z,99.99
2022-09-14T10:46:56.464Z,99.99
2022-09-14T10:47:56.202Z,99.99
2022-09-14T10:48:56.181Z,99.99
2022-09-14T10:49:56.162Z,99.99
2022-09-14T10:50:56.140Z,99.99
2022-09-14T10:51:56.120Z,99.99
2022-09-14T10:52:56.102Z,99.99
2022-09-14T10:53:56.078Z,99.99
2022-09-14T10:54:56.056Z,99.99
2022-09-14T10:55:56.037Z,99.99
2022-09-14T10:56:56.015Z,99.99
2022-09-14T10:57:56.019Z,99.99
2022-09-14T10:58:55.973Z,99.99
2022-09-14T10:59:55.954Z,99.99
2022-09-14T11:00:55.938Z,99.99
2022-09-14T11:01:56.118Z,99.99
2022-09-14T11:02:55.943Z,99.99
2022-09-14T11:03:55.871Z,99.99
2022-09-14T11:04:55.851Z,99.99
2022-09-14T11:05:55.831Z,99.99
2022-09-14T11:06:55.809Z,99.99
2022-09-14T11:07:55.791Z,99.99
2022-09-14T11:08:55.770Z,99.99
2022-09-14T11:09:55.757Z,99.99
2022-09-14T11:10:55.729Z,99.99
2022-09-14T11:11:55.710Z,99.99
2022-09-14T11:12:55.685Z,99.99
2022-09-14T11:13:55.775Z,99.99
2022-09-14T11:14:55.645Z,99.99
2022-09-14T11:15:55.733Z,99.99
2022-09-14T11:16:55.607Z,99.99
2022-09-14T11:17:55.585Z,99.99
2022-09-14T11:18:55.569Z,99.99
2022-09-14T11:19:55.540Z,99.99
2022-09-14T11:20:55.520Z,99.99
2022-09-14T11:21:55.502Z,99.99
2022-09-14T11:22:55.481Z,99.99
2022-09-14T11:23:55.456Z,99.99
2022-09-14T11:24:55.441Z,99.99
2022-09-14T11:25:55.421Z,99.99
2022-09-14T11:26:55.400Z,99.99
2022-09-14T11:27:55.379Z,99.99
2022-09-14T11:28:55.356Z,99.99
2022-09-14T11:29:55.355Z,99.99
2022-09-14T11:30:55.344Z,99.99
2022-09-14T11:32:19.388Z,99.99
2022-09-14T11:32:55.273Z,99.99
2022-09-14T11:33:55.260Z,99.99
2022-09-14T11:34:55.240Z,99.99
2022-09-14T11:35:55.215Z,99.99
2022-09-14T11:36:55.194Z,99.99
2022-09-14T11:37:55.173Z,99.99
2022-09-14T11:38:55.148Z,99.99
2022-09-14T11:39:55.215Z,99.99
2022-09-14T11:40:55.113Z,99.99
2022-09-14T11:41:55.092Z,99.99
2022-09-14T11:42:55.067Z,99.99
2022-09-14T11:43:55.050Z,99.99
2022-09-14T11:44:55.027Z,99.99
2022-09-14T11:45:55.125Z,99.99
2022-09-14T11:46:58.800Z,99.99
2022-09-14T11:47:54.965Z,99.99
2022-09-14T11:48:55.358Z,99.99
2022-09-14T11:49:54.925Z,99.99
2022-09-14T11:50:54.904Z,99.99
2022-09-14T11:51:54.882Z,99.99
2022-09-14T11:52:54.860Z,99.99
2022-09-14T11:53:54.861Z,99.99
2022-09-14T11:54:54.822Z,99.99
2022-09-14T11:55:54.799Z,99.99
2022-09-14T11:56:54.799Z,99.99
2022-09-14T11:57:54.763Z,99.99
2022-09-14T11:58:54.741Z,99.99
2022-09-14T11:59:54.718Z,99.99
2022-09-14T12:00:54.707Z,99.99
2022-09-14T12:01:54.697Z,99.99
2022-09-14T12:02:54.773Z,99.99
2022-09-14T12:03:54.800Z,99.99
2022-09-14T12:04:54.615Z,99.99
2022-09-14T12:05:54.595Z,99.99
2022-09-14T12:06:54.572Z,99.99
2022-09-14T12:07:54.562Z,99.99
2022-09-14T12:08:54.533Z,99.99
2022-09-14T12:09:54.514Z,99.99
2022-09-14T12:10:54.492Z,99.99
2022-09-14T12:11:54.472Z,99.99
2022-09-14T12:12:54.460Z,99.99
2022-09-14T12:13:54.430Z,99.99
2022-09-14T12:14:54.409Z,99.99
2022-09-14T12:15:54.487Z,99.99
2022-09-14T12:16:54.368Z,99.99
2022-09-14T12:17:54.453Z,99.99
2022-09-14T12:18:54.330Z,99.99
2022-09-14T12:19:54.305Z,99.99
2022-09-14T12:20:54.287Z,99.99
2022-09-14T12:21:54.266Z,99.99
2022-09-14T12:22:54.244Z,99.99
2022-09-14T12:23:54.223Z,99.99
2022-09-14T12:24:54.218Z,99.99
2022-09-14T12:25:54.187Z,99.99
2022-09-14T12:26:54.162Z,99.99
2022-09-14T12:27:54.146Z,99.99
2022-09-14T12:28:54.123Z,99.99
2022-09-14T12:29:54.101Z,99.99
2022-09-14T12:30:54.118Z,99.99
2022-09-14T12:31:54.060Z,99.99
2022-09-14T12:32:54.044Z,99.99
2022-09-14T12:33:54.050Z,99.99
2022-09-14T12:34:53.998Z,99.99
2022-09-14T12:35:53.979Z,99.99
2022-09-14T12:36:53.958Z,99.99
2022-09-14T12:37:53.936Z,99.99
2022-09-14T12:38:53.970Z,99.99
2022-09-14T12:39:53.933Z,99.99
2022-09-14T12:40:53.884Z,99.99
2022-09-14T12:41:53.857Z,99.99
2022-09-14T12:42:53.835Z,99.99
2022-09-14T12:43:53.814Z,99.99
2022-09-14T12:44:53.798Z,99.99
2022-09-14T12:45:53.799Z,99.99
2022-09-14T12:46:53.753Z,99.99
2022-09-14T12:47:53.733Z,99.99
2022-09-14T12:48:53.712Z,99.99
2022-09-14T12:49:53.712Z,99.99
2022-09-14T12:50:53.674Z,99.99
2022-09-14T12:51:53.653Z,99.99